This is the latest recevied weather packets stored in our database for station/object F1AGU-13. If no packets are shown the sender has not sent any weather packets the latest 10 day(s).
| Time | Temp. | Humidity | Pressure | Rain* | Wind** | Luminosity | Snow |
|---|---|---|---|---|---|---|---|
| 1787867417 | 26.11° C | 48% | 1015.3 hPa | 0 mm | - | - | - |
| 1787866817 | 26.67° C | 45% | 1015.7 hPa | 0 mm | - | - | - |
| 1787866217 | 27.78° C | 42% | 1015.9 hPa | 0 mm | - | - | - |
| 1787865617 | 27.78° C | 40% | 1016 hPa | 0 mm | - | - | - |
| 1787865017 | 27.78° C | 40% | 1015.8 hPa | 0 mm | - | - | - |
| 1787864417 | 27.22° C | 41% | 1016 hPa | 0 mm | - | - | - |
| 1787863817 | 27.22° C | 43% | 1016 hPa | 0 mm | - | - | - |
| 1787863217 | 28.33° C | 41% | 1016 hPa | 0 mm | - | - | - |
| 1787862617 | 28.33° C | 38% | 1016 hPa | 0 mm | - | - | - |
| 1787862016 | 28.33° C | 38% | 1015.9 hPa | 0 mm | - | - | - |
| 1787861416 | 28.33° C | 38% | 1015.6 hPa | 0 mm | - | - | - |
| 1787860817 | 27.78° C | 39% | 1015.5 hPa | 0 mm | - | - | - |
| 1787860217 | 27.22° C | 42% | 1015.3 hPa | 0 mm | - | - | - |
| 1787859616 | 27.78° C | 40% | 1015.1 hPa | 0 mm | - | - | - |
| 1787859017 | 27.78° C | 42% | 1015.1 hPa | 0 mm | - | - | - |
| 1787858416 | 27.78° C | 39% | 1014.9 hPa | 0 mm | - | - | - |
| 1787857816 | 28.33° C | 37% | 1015.1 hPa | 0 mm | - | - | - |
| 1787857216 | 27.78° C | 38% | 1015 hPa | 0 mm | - | - | - |
| 1787856616 | 27.78° C | 38% | 1015.2 hPa | 0 mm | - | - | - |
| 1787856016 | 28.33° C | 39% | 1015.2 hPa | 0 mm | - | - | - |
| 1787855416 | 28.33° C | 38% | 1015.3 hPa | 0 mm | - | - | - |
| 1787854816 | 28.33° C | 38% | 1015.6 hPa | 0 mm | - | - | - |
| 1787854216 | 28.89° C | 36% | 1015.4 hPa | 0 mm | - | - | - |
| 1787853617 | 28.89° C | 37% | 1015.4 hPa | 0 mm | - | - | - |
| 1787853016 | 28.89° C | 37% | 1015.3 hPa | 0 mm | - | - | - |
* Rain latest hour (hover to see other rain measurements)
** Current wind speed in m/s (hover to see current wind gust speed)